Arkadelphia, Alabama
Current Conditions -  °F | °C
As of 3:55 PM on Friday 31 Oct 2014 (Local Time) from KJFX Reporting Station
Clear Clear  
Wind Chill: 59°   Ceiling: Unl
Heat Index: 59°   Visibility: 10mi
Dew Point: 52°   Wind: 7mph
Humidity: 77%   Direction: 310°NW
Pressure: 29.99"   Gusts: NA
Location:  33.9511°N, 87.0046°W
Report Text: KJFX 312055Z AUTO 31006KT 10SM CLR 15/11 A2999 RMK A02 P-128
Loading
Personal Weather Stations






























Interactive Weather Map
Tropical Storm Tracking
New forecast layout! Learn more

10-Day Weather Forecast

Advertisements
Track Severe Weather on mobile